createdAt,value
2023-02-25T00:00:19.647Z,991.48
2023-02-25T00:01:23.667Z,991.44
2023-02-25T00:02:28.117Z,991.46
2023-02-25T00:03:32.180Z,991.49
2023-02-25T00:04:36.156Z,991.50
2023-02-25T00:05:40.447Z,991.51
2023-02-25T00:06:44.615Z,991.48
2023-02-25T00:07:48.832Z,991.49
2023-02-25T00:08:53.101Z,991.50
2023-02-25T00:09:57.211Z,991.46
2023-02-25T00:11:01.360Z,991.47
2023-02-25T00:12:19.549Z,991.48
2023-02-25T00:13:22.394Z,991.50
2023-02-25T00:14:26.661Z,991.52
2023-02-25T00:15:30.881Z,991.58
2023-02-25T00:16:35.087Z,991.57
2023-02-25T00:17:39.298Z,991.61
2023-02-25T00:18:43.544Z,991.67
2023-02-25T00:19:47.613Z,991.72
2023-02-25T00:20:51.848Z,991.72
2023-02-25T00:21:56.031Z,991.84
2023-02-25T00:23:00.136Z,991.88
2023-02-25T00:24:15.569Z,991.87
2023-02-25T00:25:08.505Z,991.88
2023-02-25T00:26:12.781Z,991.89
2023-02-25T00:27:16.942Z,991.87
2023-02-25T00:28:21.104Z,991.84
2023-02-25T00:29:25.306Z,991.91
2023-02-25T00:30:29.535Z,991.91
2023-02-25T00:31:33.926Z,991.89
2023-02-25T00:32:38.020Z,991.92
2023-02-25T00:33:42.373Z,991.95
2023-02-25T00:34:46.221Z,991.95
2023-02-25T00:35:50.415Z,991.96
2023-02-25T00:36:54.671Z,991.94
2023-02-25T00:38:13.688Z,991.98
2023-02-25T00:39:02.998Z,992.01
2023-02-25T00:40:07.179Z,992.02
2023-02-25T00:41:11.304Z,992.00
2023-02-25T00:42:15.544Z,992.01
2023-02-25T00:43:19.813Z,992.03
2023-02-25T00:44:23.938Z,992.05
2023-02-25T00:45:28.125Z,992.03
2023-02-25T00:46:32.389Z,992.04
2023-02-25T00:47:36.489Z,992.06
2023-02-25T00:48:40.662Z,992.07
2023-02-25T00:49:44.714Z,992.08
2023-02-25T00:50:48.940Z,992.07
2023-02-25T00:51:53.164Z,992.10
2023-02-25T00:52:57.372Z,992.07
2023-02-25T00:54:01.636Z,992.08
2023-02-25T00:55:05.734Z,992.10
2023-02-25T00:56:12.917Z,992.11
2023-02-25T00:57:16.257Z,992.13
2023-02-25T00:58:20.384Z,992.15
2023-02-25T00:59:24.560Z,992.14
2023-02-25T01:00:28.739Z,992.17
2023-02-25T01:01:32.965Z,992.19
2023-02-25T01:02:37.102Z,992.16
2023-02-25T01:03:41.202Z,992.15
2023-02-25T01:04:45.498Z,992.14
2023-02-25T01:05:49.683Z,992.17
2023-02-25T01:06:53.817Z,992.20
2023-02-25T01:07:58.199Z,992.19
2023-02-25T01:09:02.294Z,992.20
2023-02-25T01:10:06.465Z,992.21
2023-02-25T01:11:10.672Z,992.20
2023-02-25T01:12:14.858Z,992.23
2023-02-25T01:13:19.059Z,992.20
2023-02-25T01:14:23.230Z,992.24
2023-02-25T01:15:27.403Z,992.25
2023-02-25T01:16:31.774Z,992.25
2023-02-25T01:17:35.821Z,992.28
2023-02-25T01:18:39.980Z,992.28
2023-02-25T01:19:44.227Z,992.30
2023-02-25T01:20:48.373Z,992.31
2023-02-25T01:21:52.510Z,992.33
2023-02-25T01:22:56.763Z,992.37
2023-02-25T01:24:01.017Z,992.39
2023-02-25T01:25:05.159Z,992.36
2023-02-25T01:26:09.336Z,992.42
2023-02-25T01:27:13.504Z,992.40
2023-02-25T01:28:17.674Z,992.42
2023-02-25T01:29:21.948Z,992.43
2023-02-25T01:30:26.041Z,992.44
2023-02-25T01:31:30.506Z,992.44
2023-02-25T01:32:34.502Z,992.46
2023-02-25T01:33:38.584Z,992.42
2023-02-25T01:34:42.895Z,992.46
2023-02-25T01:35:47.032Z,992.54
2023-02-25T01:36:51.206Z,992.49
2023-02-25T01:37:55.484Z,992.52
2023-02-25T01:38:59.617Z,992.55
2023-02-25T01:40:03.793Z,992.58
2023-02-25T01:41:07.971Z,992.62
2023-02-25T01:42:12.210Z,992.64
2023-02-25T01:43:16.394Z,992.63
2023-02-25T01:44:20.517Z,992.65
2023-02-25T01:45:24.735Z,992.65
2023-02-25T01:46:29.015Z,992.68
2023-02-25T01:47:33.154Z,992.72
2023-02-25T01:48:37.445Z,992.68
2023-02-25T01:49:41.588Z,992.72
2023-02-25T01:50:45.779Z,992.79
2023-02-25T01:51:50.076Z,992.84
2023-02-25T01:52:54.173Z,992.80
2023-02-25T01:53:58.373Z,992.87
2023-02-25T01:55:02.531Z,992.88
2023-02-25T01:56:06.713Z,992.88
2023-02-25T01:57:10.859Z,992.90
2023-02-25T01:58:15.058Z,992.89
2023-02-25T01:59:19.230Z,992.90
2023-02-25T02:00:23.394Z,992.91
2023-02-25T02:01:27.555Z,992.96
2023-02-25T02:02:34.723Z,992.95
2023-02-25T02:03:37.965Z,993.03
2023-02-25T02:04:42.107Z,993.06
2023-02-25T02:05:46.268Z,993.04
2023-02-25T02:06:50.493Z,993.07
2023-02-25T02:07:54.591Z,993.07
2023-02-25T02:08:58.745Z,993.06
2023-02-25T02:10:02.862Z,993.13
2023-02-25T02:11:06.951Z,993.13
2023-02-25T02:12:11.196Z,993.22
2023-02-25T02:13:15.366Z,993.23
2023-02-25T02:14:19.609Z,993.25
2023-02-25T02:15:23.729Z,993.29
2023-02-25T02:16:27.974Z,993.31
2023-02-25T02:17:32.154Z,993.31
2023-02-25T02:18:36.337Z,993.32
2023-02-25T02:19:40.524Z,993.38
2023-02-25T02:20:44.698Z,993.39
2023-02-25T02:21:48.893Z,993.35
2023-02-25T02:22:53.041Z,993.38
2023-02-25T02:23:57.202Z,993.40
2023-02-25T02:25:01.364Z,993.44
2023-02-25T02:26:05.599Z,993.42
2023-02-25T02:27:09.732Z,993.45
2023-02-25T02:28:13.950Z,993.48
2023-02-25T02:29:18.143Z,993.45
2023-02-25T02:30:22.393Z,993.47
2023-02-25T02:31:26.503Z,993.49
2023-02-25T02:32:30.668Z,993.49
2023-02-25T02:33:34.700Z,993.51
2023-02-25T02:34:38.912Z,993.48
2023-02-25T02:35:43.111Z,993.53
2023-02-25T02:36:47.272Z,993.55
2023-02-25T02:37:51.510Z,993.56
2023-02-25T02:38:55.684Z,993.56
2023-02-25T02:40:13.972Z,993.57
2023-02-25T02:41:16.908Z,993.59
2023-02-25T02:42:20.991Z,993.62
2023-02-25T02:43:25.147Z,993.63
2023-02-25T02:44:29.278Z,993.66
2023-02-25T02:45:33.530Z,993.70
2023-02-25T02:46:37.690Z,993.69
2023-02-25T02:47:41.865Z,993.71
2023-02-25T02:48:46.076Z,993.72
2023-02-25T02:49:50.211Z,993.74
2023-02-25T02:50:54.415Z,993.73
2023-02-25T02:51:58.569Z,993.76
2023-02-25T02:53:02.794Z,993.76
2023-02-25T02:54:06.846Z,993.75
2023-02-25T02:55:10.915Z,993.76
2023-02-25T02:56:15.275Z,993.80
2023-02-25T02:57:19.446Z,993.83
2023-02-25T02:58:23.637Z,993.84
2023-02-25T02:59:27.888Z,993.83
2023-02-25T03:00:31.997Z,993.83
2023-02-25T03:01:36.406Z,993.86
2023-02-25T03:02:40.357Z,993.94
2023-02-25T03:03:44.603Z,993.90
2023-02-25T03:04:48.737Z,993.95
2023-02-25T03:05:52.926Z,993.93
2023-02-25T03:06:57.078Z,993.97
2023-02-25T03:08:01.219Z,994.00
2023-02-25T03:09:05.448Z,994.01
2023-02-25T03:10:09.580Z,994.03
2023-02-25T03:11:13.814Z,994.07
2023-02-25T03:12:18.118Z,994.08
2023-02-25T03:13:22.222Z,994.08
2023-02-25T03:14:26.385Z,994.16
2023-02-25T03:15:30.552Z,994.09
2023-02-25T03:16:34.739Z,994.12
2023-02-25T03:17:38.884Z,994.14
2023-02-25T03:18:43.081Z,994.18
2023-02-25T03:19:47.255Z,994.20
2023-02-25T03:20:51.370Z,994.27
2023-02-25T03:21:55.581Z,994.29
2023-02-25T03:22:59.787Z,994.27
2023-02-25T03:24:03.923Z,994.32
2023-02-25T03:25:08.160Z,994.38
2023-02-25T03:26:12.291Z,994.40
2023-02-25T03:27:16.495Z,994.39
2023-02-25T03:28:20.740Z,994.39
2023-02-25T03:29:24.886Z,994.44
2023-02-25T03:30:29.019Z,994.47
2023-02-25T03:31:33.331Z,994.46
2023-02-25T03:32:37.669Z,994.48
2023-02-25T03:33:41.556Z,994.51
2023-02-25T03:34:45.777Z,994.50
2023-02-25T03:35:49.918Z,994.54
2023-02-25T03:36:54.164Z,994.53
2023-02-25T03:37:58.253Z,994.60
2023-02-25T03:39:02.484Z,994.60
2023-02-25T03:40:06.610Z,994.63
2023-02-25T03:41:10.659Z,994.66
2023-02-25T03:42:14.860Z,994.70
2023-02-25T03:43:19.010Z,994.71
2023-02-25T03:44:23.168Z,994.74
2023-02-25T03:45:27.341Z,994.75
2023-02-25T03:46:31.421Z,994.74
2023-02-25T03:47:35.592Z,994.82
2023-02-25T03:48:39.786Z,994.82
2023-02-25T03:49:44.123Z,994.83
2023-02-25T03:50:48.128Z,994.85
2023-02-25T03:51:52.245Z,994.88
2023-02-25T03:52:56.490Z,994.89
2023-02-25T03:54:00.641Z,994.89
2023-02-25T03:55:04.712Z,994.94
2023-02-25T03:56:08.892Z,994.95
2023-02-25T03:57:13.037Z,994.99
2023-02-25T03:58:17.220Z,995.02
2023-02-25T03:59:21.356Z,995.04
2023-02-25T04:00:25.448Z,995.02
2023-02-25T04:01:29.738Z,995.04
2023-02-25T04:02:33.980Z,995.06
2023-02-25T04:03:38.015Z,995.09
2023-02-25T04:04:42.410Z,995.11
2023-02-25T04:05:46.426Z,995.14
2023-02-25T04:06:50.568Z,995.08
2023-02-25T04:07:54.711Z,995.16
2023-02-25T04:08:58.938Z,995.17
2023-02-25T04:10:03.128Z,995.20
2023-02-25T04:11:07.285Z,995.22
2023-02-25T04:12:11.484Z,995.27
2023-02-25T04:13:15.621Z,995.32
2023-02-25T04:14:19.850Z,995.31
2023-02-25T04:15:24.121Z,995.33
2023-02-25T04:16:28.142Z,995.38
2023-02-25T04:17:32.246Z,995.35
2023-02-25T04:18:36.474Z,995.38
2023-02-25T04:19:40.597Z,995.43
2023-02-25T04:20:44.692Z,995.41
2023-02-25T04:21:48.986Z,995.48
2023-02-25T04:22:53.008Z,995.47
2023-02-25T04:23:57.059Z,995.56
2023-02-25T04:25:01.237Z,995.54
2023-02-25T04:26:05.459Z,995.58
2023-02-25T04:27:09.452Z,995.58
2023-02-25T04:28:13.688Z,995.63
2023-02-25T04:29:17.867Z,995.63
2023-02-25T04:30:22.008Z,995.64
2023-02-25T04:31:26.415Z,995.65
2023-02-25T04:32:30.423Z,995.68
2023-02-25T04:33:34.389Z,995.68
2023-02-25T04:34:38.603Z,995.70
2023-02-25T04:35:42.851Z,995.76
2023-02-25T04:36:46.952Z,995.77
2023-02-25T04:37:51.111Z,995.79
2023-02-25T04:38:55.131Z,995.82
2023-02-25T04:39:59.387Z,995.84
2023-02-25T04:41:03.610Z,995.85
2023-02-25T04:42:07.678Z,995.92
2023-02-25T04:43:11.713Z,995.95
2023-02-25T04:44:15.811Z,995.95
2023-02-25T04:45:19.885Z,995.94
2023-02-25T04:46:24.627Z,995.98
2023-02-25T04:47:28.306Z,996.00
2023-02-25T04:48:32.366Z,995.98
2023-02-25T04:49:36.633Z,996.00
2023-02-25T04:50:40.790Z,996.01
2023-02-25T04:51:44.899Z,996.03
2023-02-25T04:52:49.088Z,996.06
2023-02-25T04:53:53.202Z,996.08
2023-02-25T04:54:57.328Z,996.06
2023-02-25T04:56:01.482Z,996.12
2023-02-25T04:57:05.621Z,996.11
2023-02-25T04:58:09.777Z,996.12
2023-02-25T04:59:14.028Z,996.14
2023-02-25T05:00:18.035Z,996.15
2023-02-25T05:01:22.218Z,996.13
2023-02-25T05:02:26.382Z,996.13
2023-02-25T05:03:30.688Z,996.16
2023-02-25T05:04:35.015Z,996.13
2023-02-25T05:05:38.990Z,996.16
2023-02-25T05:06:43.061Z,996.15
2023-02-25T05:07:47.150Z,996.18
2023-02-25T05:08:51.301Z,996.19
2023-02-25T05:09:55.434Z,996.21
2023-02-25T05:10:59.547Z,996.25
2023-02-25T05:12:03.786Z,996.25
2023-02-25T05:13:07.835Z,996.25
2023-02-25T05:14:12.052Z,996.30
2023-02-25T05:15:19.233Z,996.32
2023-02-25T05:16:23.003Z,996.31
2023-02-25T05:17:26.599Z,996.32
2023-02-25T05:18:30.796Z,996.33
2023-02-25T05:19:34.920Z,996.33
2023-02-25T05:20:39.028Z,996.35
2023-02-25T05:21:43.166Z,996.34
2023-02-25T05:22:47.251Z,996.35
2023-02-25T05:23:51.398Z,996.38
2023-02-25T05:24:55.616Z,996.36
2023-02-25T05:25:59.820Z,996.35
2023-02-25T05:27:03.944Z,996.38
2023-02-25T05:28:07.981Z,996.39
2023-02-25T05:29:12.215Z,996.42
2023-02-25T05:30:16.447Z,996.42
2023-02-25T05:31:20.725Z,996.46
2023-02-25T05:32:24.890Z,996.48
2023-02-25T05:33:28.867Z,996.51
2023-02-25T05:34:33.104Z,996.51
2023-02-25T05:35:37.275Z,996.54
2023-02-25T05:36:41.424Z,996.55
2023-02-25T05:37:45.570Z,996.56
2023-02-25T05:38:49.710Z,996.58
2023-02-25T05:39:53.880Z,996.59
2023-02-25T05:40:57.988Z,996.63
2023-02-25T05:42:02.081Z,996.66
2023-02-25T05:43:06.224Z,996.66
2023-02-25T05:44:10.540Z,996.68
2023-02-25T05:45:14.642Z,996.69
2023-02-25T05:46:18.825Z,996.73
2023-02-25T05:47:22.907Z,996.76
2023-02-25T05:48:27.205Z,996.75
2023-02-25T05:49:31.323Z,996.79
2023-02-25T05:50:35.496Z,996.81
2023-02-25T05:51:39.588Z,996.84
2023-02-25T05:52:43.770Z,996.85
2023-02-25T05:53:47.855Z,996.89
2023-02-25T05:54:52.009Z,996.88
2023-02-25T05:55:56.121Z,996.90
2023-02-25T05:57:00.320Z,996.93
2023-02-25T05:58:04.501Z,996.97
2023-02-25T05:59:08.608Z,996.99
2023-02-25T06:00:12.682Z,997.02
2023-02-25T06:01:16.824Z,997.04
2023-02-25T06:02:21.075Z,997.04
2023-02-25T06:03:25.265Z,997.05
2023-02-25T06:04:43.468Z,997.12
2023-02-25T06:05:47.986Z,997.12
2023-02-25T06:06:50.485Z,997.12
2023-02-25T06:07:54.766Z,997.16
2023-02-25T06:08:58.835Z,997.13
2023-02-25T06:10:02.896Z,997.19
2023-02-25T06:11:07.073Z,997.25
2023-02-25T06:12:11.230Z,997.26
2023-02-25T06:13:15.435Z,997.30
2023-02-25T06:14:19.545Z,997.32
2023-02-25T06:15:23.613Z,997.34
2023-02-25T06:16:27.937Z,997.43
2023-02-25T06:17:31.906Z,997.41
2023-02-25T06:18:36.323Z,997.46
2023-02-25T06:19:41.315Z,997.45
2023-02-25T06:20:45.132Z,997.53
2023-02-25T06:21:49.189Z,997.60
2023-02-25T06:22:53.386Z,997.63
2023-02-25T06:23:57.529Z,997.65
2023-02-25T06:25:01.803Z,997.68
2023-02-25T06:26:05.865Z,997.72
2023-02-25T06:27:09.917Z,997.76
2023-02-25T06:28:14.115Z,997.76
2023-02-25T06:29:18.586Z,997.82
2023-02-25T06:30:22.687Z,997.81
2023-02-25T06:31:26.896Z,997.83
2023-02-25T06:32:31.174Z,997.85
2023-02-25T06:33:35.081Z,997.86
2023-02-25T06:34:39.235Z,997.89
2023-02-25T06:35:43.300Z,997.94
2023-02-25T06:36:47.639Z,997.94
2023-02-25T06:37:51.585Z,997.94
2023-02-25T06:38:55.857Z,998.02
2023-02-25T06:39:59.975Z,998.00
2023-02-25T06:41:04.141Z,998.00
2023-02-25T06:42:08.308Z,998.05
2023-02-25T06:43:12.338Z,998.08
2023-02-25T06:44:16.684Z,998.11
2023-02-25T06:45:20.783Z,998.10
2023-02-25T06:46:25.466Z,998.12
2023-02-25T06:47:29.120Z,998.16
2023-02-25T06:48:33.139Z,998.14
2023-02-25T06:49:37.334Z,998.20
2023-02-25T06:50:41.515Z,998.21
2023-02-25T06:51:45.550Z,998.22
2023-02-25T06:52:49.802Z,998.27
2023-02-25T06:53:54.051Z,998.26
2023-02-25T06:54:58.048Z,998.30
2023-02-25T06:56:02.346Z,998.32
2023-02-25T06:57:06.426Z,998.34
2023-02-25T06:58:10.556Z,998.36
2023-02-25T06:59:14.601Z,998.38
2023-02-25T07:00:18.882Z,998.43
2023-02-25T07:01:23.234Z,998.45
2023-02-25T07:02:27.320Z,998.41
2023-02-25T07:03:31.413Z,998.50
2023-02-25T07:04:49.829Z,998.51
2023-02-25T07:06:06.482Z,998.57
2023-02-25T07:07:09.250Z,998.52
2023-02-25T07:08:13.571Z,998.60
2023-02-25T07:09:17.525Z,998.60
2023-02-25T07:10:21.732Z,998.63
2023-02-25T07:11:25.811Z,998.70
2023-02-25T07:12:29.973Z,998.68
2023-02-25T07:13:34.102Z,998.70
2023-02-25T07:14:38.228Z,998.69
2023-02-25T07:15:42.347Z,998.74
2023-02-25T07:16:46.527Z,998.74
2023-02-25T07:17:50.700Z,998.75
2023-02-25T07:18:54.821Z,998.73
2023-02-25T07:19:58.986Z,998.77
2023-02-25T07:21:03.189Z,998.79
2023-02-25T07:22:07.284Z,998.81
2023-02-25T07:23:11.339Z,998.82
2023-02-25T07:24:15.614Z,998.80
2023-02-25T07:25:19.874Z,998.82
2023-02-25T07:26:24.166Z,998.89
2023-02-25T07:27:27.988Z,998.87
2023-02-25T07:28:32.365Z,998.90
2023-02-25T07:29:36.309Z,998.93
2023-02-25T07:30:40.534Z,998.93
2023-02-25T07:31:44.956Z,998.96
2023-02-25T07:32:48.937Z,998.95
2023-02-25T07:33:52.980Z,999.04
2023-02-25T07:34:57.221Z,999.07
2023-02-25T07:36:04.217Z,999.06
2023-02-25T07:37:07.436Z,999.06
2023-02-25T07:38:11.588Z,999.10
2023-02-25T07:39:15.833Z,999.17
2023-02-25T07:40:20.003Z,999.13
2023-02-25T07:41:24.418Z,999.14
2023-02-25T07:42:28.228Z,999.11
2023-02-25T07:43:32.448Z,999.24
2023-02-25T07:44:36.605Z,999.24
2023-02-25T07:45:40.779Z,999.23
2023-02-25T07:46:44.895Z,999.25
2023-02-25T07:47:49.094Z,999.27
2023-02-25T07:48:53.226Z,999.29
2023-02-25T07:49:57.247Z,999.34
2023-02-25T07:51:01.536Z,999.38
2023-02-25T07:52:05.729Z,999.35
2023-02-25T07:53:09.790Z,999.38
2023-02-25T07:54:14.104Z,999.42
2023-02-25T07:55:18.277Z,999.41
2023-02-25T07:56:22.383Z,999.43
2023-02-25T07:57:26.531Z,999.46
2023-02-25T07:58:30.605Z,999.47
2023-02-25T07:59:34.672Z,999.51
2023-02-25T08:00:44.899Z,999.51
2023-02-25T08:01:47.650Z,999.56
2023-02-25T08:02:51.695Z,999.57
2023-02-25T08:03:55.808Z,999.64
2023-02-25T08:04:59.837Z,999.60
2023-02-25T08:06:04.040Z,999.65
2023-02-25T08:07:08.179Z,999.64
2023-02-25T08:08:12.344Z,999.68
2023-02-25T08:09:16.511Z,999.70
2023-02-25T08:10:20.581Z,999.65
2023-02-25T08:11:25.454Z,999.75
2023-02-25T08:12:29.017Z,999.80
2023-02-25T08:13:33.203Z,999.76
2023-02-25T08:14:37.399Z,999.76
2023-02-25T08:15:41.433Z,999.75
2023-02-25T08:16:45.475Z,999.81
2023-02-25T08:17:49.612Z,999.78
2023-02-25T08:18:53.856Z,999.82
2023-02-25T08:19:58.061Z,999.83
2023-02-25T08:21:03.068Z,999.85
2023-02-25T08:22:06.361Z,999.91
2023-02-25T08:23:10.519Z,999.86
2023-02-25T08:24:14.688Z,999.91
2023-02-25T08:25:18.865Z,999.90
2023-02-25T08:26:22.898Z,999.85
2023-02-25T08:27:27.084Z,999.88
2023-02-25T08:28:34.349Z,999.91
2023-02-25T08:29:35.374Z,999.90
2023-02-25T08:30:39.663Z,999.88
2023-02-25T08:31:43.857Z,999.90
2023-02-25T08:32:48.054Z,999.94
2023-02-25T08:33:51.999Z,999.95
2023-02-25T08:34:56.120Z,999.96
2023-02-25T08:36:00.282Z,999.99
2023-02-25T08:37:04.396Z,999.97
2023-02-25T08:38:08.509Z,999.97
2023-02-25T08:39:12.588Z,999.99
2023-02-25T08:40:18.979Z,1000.02
2023-02-25T08:41:22.220Z,999.97
2023-02-25T08:42:25.570Z,1000.04
2023-02-25T08:43:29.728Z,1000.10
2023-02-25T08:44:33.971Z,1000.13
2023-02-25T08:45:38.187Z,1000.16
2023-02-25T08:46:42.234Z,1000.17
2023-02-25T08:47:46.365Z,1000.20
2023-02-25T08:48:50.520Z,1000.22
2023-02-25T08:49:54.626Z,1000.28
2023-02-25T08:50:58.732Z,1000.25
2023-02-25T08:52:02.921Z,1000.32
2023-02-25T08:53:07.135Z,1000.29
2023-02-25T08:54:11.240Z,1000.29
2023-02-25T08:55:15.499Z,1000.31
2023-02-25T08:56:19.704Z,1000.31
2023-02-25T08:57:23.829Z,1000.37
2023-02-25T08:58:28.035Z,1000.39
2023-02-25T08:59:32.138Z,1000.41
2023-02-25T09:00:36.186Z,1000.42
2023-02-25T09:01:40.268Z,1000.43
2023-02-25T09:02:44.382Z,1000.45
2023-02-25T09:03:48.539Z,1000.44
2023-02-25T09:04:52.801Z,1000.48
2023-02-25T09:05:56.895Z,1000.47
2023-02-25T09:07:00.966Z,1000.49
2023-02-25T09:08:05.009Z,1000.48
2023-02-25T09:09:09.260Z,1000.52
2023-02-25T09:10:13.411Z,1000.51
2023-02-25T09:11:18.463Z,1000.51
2023-02-25T09:12:24.660Z,1000.57
2023-02-25T09:13:26.352Z,1000.58
2023-02-25T09:14:30.404Z,1000.57
2023-02-25T09:15:34.609Z,1000.59
2023-02-25T09:16:38.809Z,1000.61
2023-02-25T09:17:42.942Z,1000.61
2023-02-25T09:18:47.055Z,1000.64
2023-02-25T09:19:51.202Z,1000.65
2023-02-25T09:20:55.259Z,1000.65
2023-02-25T09:21:59.603Z,1000.66
2023-02-25T09:23:04.602Z,1000.69
2023-02-25T09:24:08.275Z,1000.72
2023-02-25T09:25:12.554Z,1000.72
2023-02-25T09:26:16.651Z,1000.79
2023-02-25T09:27:20.792Z,1000.79
2023-02-25T09:28:24.920Z,1000.81
2023-02-25T09:29:29.002Z,1000.83
2023-02-25T09:30:33.200Z,1000.88
2023-02-25T09:31:37.807Z,1000.85
2023-02-25T09:32:41.690Z,1000.87
2023-02-25T09:33:45.661Z,1000.91
2023-02-25T09:34:49.808Z,1000.90
2023-02-25T09:35:53.953Z,1000.99
2023-02-25T09:36:57.983Z,1001.01
2023-02-25T09:38:02.237Z,1001.00
2023-02-25T09:39:06.392Z,1001.04
2023-02-25T09:40:10.594Z,1001.08
2023-02-25T09:41:14.895Z,1001.12
2023-02-25T09:42:18.978Z,1001.18
2023-02-25T09:43:23.146Z,1001.22
2023-02-25T09:44:27.367Z,1001.21
2023-02-25T09:45:31.512Z,1001.23
2023-02-25T09:46:35.556Z,1001.26
2023-02-25T09:47:39.849Z,1001.28
2023-02-25T09:48:46.184Z,1001.29
2023-02-25T09:49:47.965Z,1001.35
2023-02-25T09:50:52.176Z,1001.34
2023-02-25T09:51:56.346Z,1001.38
2023-02-25T09:53:00.488Z,1001.39
2023-02-25T09:54:06.788Z,1001.42
2023-02-25T09:55:08.697Z,1001.44
2023-02-25T09:56:12.917Z,1001.46
2023-02-25T09:57:17.089Z,1001.46
2023-02-25T09:58:21.208Z,1001.50
2023-02-25T09:59:25.347Z,1001.51
2023-02-25T10:00:29.592Z,1001.54
2023-02-25T10:01:33.782Z,1001.57
2023-02-25T10:02:37.999Z,1001.61
2023-02-25T10:03:41.949Z,1001.63
2023-02-25T10:04:46.178Z,1001.65
2023-02-25T10:05:50.443Z,1001.62
2023-02-25T10:06:54.630Z,1001.65
2023-02-25T10:07:58.777Z,1001.64
2023-02-25T10:09:03.008Z,1001.65
2023-02-25T10:10:07.080Z,1001.68
2023-02-25T10:11:11.165Z,1001.64
2023-02-25T10:12:15.371Z,1001.64
2023-02-25T10:13:19.660Z,1001.67
2023-02-25T10:14:23.633Z,1001.66
2023-02-25T10:15:27.853Z,1001.67
2023-02-25T10:16:32.004Z,1001.71
2023-02-25T10:17:36.135Z,1001.69
2023-02-25T10:18:40.282Z,1001.68
2023-02-25T10:19:44.420Z,1001.72
2023-02-25T10:20:48.575Z,1001.72
2023-02-25T10:21:52.773Z,1001.76
2023-02-25T10:22:56.857Z,1001.79
2023-02-25T10:24:01.097Z,1001.85
2023-02-25T10:25:05.292Z,1001.87
2023-02-25T10:26:09.443Z,1001.93
2023-02-25T10:27:13.702Z,1001.94
2023-02-25T10:28:17.749Z,1001.95
2023-02-25T10:29:21.938Z,1002.01
2023-02-25T10:30:26.035Z,1002.08
2023-02-25T10:31:30.288Z,1002.21
2023-02-25T10:32:34.375Z,1002.27
2023-02-25T10:33:38.470Z,1002.26
2023-02-25T10:34:42.572Z,1002.38
2023-02-25T10:35:46.628Z,1002.31
2023-02-25T10:36:50.837Z,1002.30
2023-02-25T10:37:54.903Z,1002.36
2023-02-25T10:38:59.119Z,1002.47
2023-02-25T10:40:04.654Z,1002.46
2023-02-25T10:41:07.341Z,1002.46
2023-02-25T10:42:11.598Z,1002.47
2023-02-25T10:43:15.585Z,1002.47
2023-02-25T10:44:19.823Z,1002.47
2023-02-25T10:45:23.966Z,1002.47
2023-02-25T10:46:28.119Z,1002.47
2023-02-25T10:47:32.251Z,1002.49
2023-02-25T10:48:36.350Z,1002.47
2023-02-25T10:49:40.396Z,1002.45
2023-02-25T10:50:46.462Z,1002.47
2023-02-25T10:51:48.701Z,1002.50
2023-02-25T10:52:52.951Z,1002.50
2023-02-25T10:53:57.161Z,1002.55
2023-02-25T10:55:17.186Z,1002.55
2023-02-25T10:56:20.381Z,1002.57
2023-02-25T10:57:24.483Z,1002.61
2023-02-25T10:58:28.608Z,1002.61
2023-02-25T10:59:32.725Z,1002.63
2023-02-25T11:00:36.908Z,1002.66
2023-02-25T11:01:41.115Z,1002.68
2023-02-25T11:02:45.264Z,1002.69
2023-02-25T11:03:49.313Z,1002.72
2023-02-25T11:04:53.539Z,1002.70
2023-02-25T11:05:57.677Z,1002.74
2023-02-25T11:07:01.716Z,1002.74
2023-02-25T11:08:05.962Z,1002.77
2023-02-25T11:09:09.975Z,1002.79
2023-02-25T11:10:14.090Z,1002.81
2023-02-25T11:11:18.179Z,1002.82
2023-02-25T11:12:22.293Z,1002.82
2023-02-25T11:13:26.512Z,1002.83
2023-02-25T11:14:30.619Z,1002.84
2023-02-25T11:15:44.784Z,1002.86
2023-02-25T11:16:39.166Z,1002.86
2023-02-25T11:17:43.130Z,1002.87
2023-02-25T11:18:47.382Z,1002.92
2023-02-25T11:19:51.600Z,1002.91
2023-02-25T11:20:55.775Z,1002.94
2023-02-25T11:21:59.911Z,1002.93
2023-02-25T11:23:04.115Z,1002.92
2023-02-25T11:24:08.283Z,1002.95
2023-02-25T11:25:12.421Z,1002.97
2023-02-25T11:26:16.579Z,1002.96
2023-02-25T11:27:36.643Z,1002.97
2023-02-25T11:28:37.611Z,1003.00
2023-02-25T11:29:41.727Z,1003.00
2023-02-25T11:30:46.011Z,1002.99
2023-02-25T11:31:50.603Z,1003.02
2023-02-25T11:32:54.427Z,1003.00
2023-02-25T11:33:58.443Z,1003.07
2023-02-25T11:35:02.519Z,1003.06
2023-02-25T11:36:06.634Z,1003.03
2023-02-25T11:37:10.939Z,1003.06
2023-02-25T11:38:15.055Z,1003.06
2023-02-25T11:39:19.201Z,1003.03
2023-02-25T11:40:23.223Z,1003.08
2023-02-25T11:41:27.404Z,1003.10
2023-02-25T11:42:31.462Z,1003.13
2023-02-25T11:43:35.800Z,1003.13
2023-02-25T11:44:39.951Z,1003.11
2023-02-25T11:45:44.084Z,1003.10
2023-02-25T11:46:48.270Z,1003.14
2023-02-25T11:47:52.407Z,1003.15
2023-02-25T11:48:56.450Z,1003.20
2023-02-25T11:50:00.774Z,1003.27
2023-02-25T11:51:04.778Z,1003.23
2023-02-25T11:52:09.018Z,1003.24
2023-02-25T11:53:13.256Z,1003.30
2023-02-25T11:54:17.311Z,1003.33
2023-02-25T11:55:21.551Z,1003.34
2023-02-25T11:56:26.650Z,1003.36
2023-02-25T11:57:30.325Z,1003.33
2023-02-25T11:58:34.536Z,1003.44
2023-02-25T11:59:38.634Z,1003.41
2023-02-25T12:00:42.792Z,1003.45
2023-02-25T12:01:46.853Z,1003.46
2023-02-25T12:02:51.037Z,1003.50
2023-02-25T12:03:55.193Z,1003.49
2023-02-25T12:04:59.232Z,1003.48
2023-02-25T12:06:03.401Z,1003.51
2023-02-25T12:07:07.569Z,1003.48
2023-02-25T12:08:14.166Z,1003.55
2023-02-25T12:09:15.794Z,1003.60
2023-02-25T12:10:20.089Z,1003.60
2023-02-25T12:11:24.414Z,1003.64
2023-02-25T12:12:28.354Z,1003.69
2023-02-25T12:13:32.478Z,1003.66
2023-02-25T12:14:36.693Z,1003.67
2023-02-25T12:15:40.842Z,1003.69
2023-02-25T12:16:45.540Z,1003.69
2023-02-25T12:17:49.249Z,1003.70
2023-02-25T12:18:53.290Z,1003.76
2023-02-25T12:19:57.693Z,1003.75
2023-02-25T12:21:01.783Z,1003.78
2023-02-25T12:22:05.976Z,1003.81
2023-02-25T12:23:10.112Z,1003.79
2023-02-25T12:24:14.225Z,1003.80
2023-02-25T12:25:18.369Z,1003.85
2023-02-25T12:26:22.438Z,1003.83
2023-02-25T12:27:26.524Z,1003.84
2023-02-25T12:28:30.742Z,1003.84
2023-02-25T12:29:34.876Z,1003.79
2023-02-25T12:30:39.134Z,1003.89
2023-02-25T12:31:43.286Z,1003.90
2023-02-25T12:32:47.478Z,1003.87
2023-02-25T12:33:51.513Z,1003.91
2023-02-25T12:34:55.606Z,1003.88
2023-02-25T12:35:59.843Z,1003.95
2023-02-25T12:37:03.899Z,1003.95
2023-02-25T12:38:08.124Z,1003.98
2023-02-25T12:39:12.169Z,1004.00
2023-02-25T12:40:16.278Z,1004.03
2023-02-25T12:41:20.576Z,1004.02
2023-02-25T12:42:24.584Z,1004.02
2023-02-25T12:44:55.669Z,1004.07
2023-02-25T12:45:59.773Z,1004.09
2023-02-25T12:47:03.900Z,1004.03
2023-02-25T12:48:08.150Z,1004.07
2023-02-25T12:49:12.357Z,1004.07
2023-02-25T12:50:16.387Z,1004.13
2023-02-25T12:51:20.656Z,1004.13
2023-02-25T12:52:24.653Z,1004.11
2023-02-25T12:53:28.781Z,1004.18
2023-02-25T12:54:32.962Z,1004.20
2023-02-25T12:55:37.122Z,1004.18
2023-02-25T12:56:41.270Z,1004.25
2023-02-25T12:57:45.621Z,1004.22
2023-02-25T12:58:49.620Z,1004.30
2023-02-25T12:59:53.654Z,1004.30
2023-02-25T13:00:57.952Z,1004.31
2023-02-25T13:02:04.993Z,1004.29
2023-02-25T13:03:08.180Z,1004.32
2023-02-25T13:04:12.487Z,1004.33
2023-02-25T13:05:16.567Z,1004.38
2023-02-25T13:06:20.613Z,1004.39
2023-02-25T13:07:24.855Z,1004.41
2023-02-25T13:08:29.030Z,1004.42
2023-02-25T13:09:33.130Z,1004.43
2023-02-25T13:10:37.387Z,1004.41
2023-02-25T13:12:07.262Z,1004.43
2023-02-25T13:12:45.720Z,1004.46
2023-02-25T13:13:49.823Z,1004.47
2023-02-25T13:14:54.002Z,1004.49